createdAt,value
2023-05-19T00:01:32.457Z,7.80
2023-05-19T00:03:14.010Z,7.69
2023-05-19T00:04:55.896Z,7.77
2023-05-19T00:06:37.357Z,7.84
2023-05-19T00:08:18.826Z,7.96
2023-05-19T00:10:00.211Z,7.93
2023-05-19T00:11:41.554Z,7.87
2023-05-19T00:13:22.911Z,7.72
2023-05-19T00:15:04.260Z,7.79
2023-05-19T00:16:45.611Z,7.64
2023-05-19T00:18:26.931Z,7.82
2023-05-19T00:20:08.282Z,7.94
2023-05-19T00:21:49.602Z,8.25
2023-05-19T00:23:30.930Z,8.52
2023-05-19T00:25:12.322Z,8.81
2023-05-19T00:26:53.650Z,8.95
2023-05-19T00:28:34.946Z,8.74
2023-05-19T00:30:16.279Z,8.89
2023-05-19T00:31:57.653Z,8.92
2023-05-19T00:33:39.010Z,8.77
2023-05-19T00:35:20.394Z,8.51
2023-05-19T00:37:01.767Z,8.34
2023-05-19T00:38:43.127Z,8.14
2023-05-19T00:40:24.483Z,7.96
2023-05-19T00:42:05.846Z,7.95
2023-05-19T00:43:47.170Z,7.89
2023-05-19T00:45:28.500Z,8.19
2023-05-19T00:47:09.860Z,8.02
2023-05-19T00:48:51.213Z,8.36
2023-05-19T00:50:32.793Z,8.34
2023-05-19T00:52:14.316Z,7.52
2023-05-19T00:53:55.663Z,7.26
2023-05-19T00:55:36.995Z,7.16
2023-05-19T00:57:18.319Z,7.47
2023-05-19T00:58:59.647Z,7.89
2023-05-19T01:00:41.062Z,8.18
2023-05-19T01:02:23.044Z,8.26
2023-05-19T01:04:04.515Z,7.86
2023-05-19T01:05:45.889Z,7.73
2023-05-19T01:07:27.280Z,7.90
2023-05-19T01:09:08.629Z,7.98
2023-05-19T01:10:49.981Z,8.04
2023-05-19T01:12:31.330Z,8.14
2023-05-19T01:14:12.740Z,8.28
2023-05-19T01:15:54.097Z,8.62
2023-05-19T01:17:35.444Z,8.84
2023-05-19T01:19:17.344Z,8.73
2023-05-19T01:20:58.692Z,8.65
2023-05-19T01:22:40.004Z,8.62
2023-05-19T01:24:21.376Z,8.49
2023-05-19T01:26:02.726Z,8.43
2023-05-19T01:27:44.055Z,8.42
2023-05-19T01:29:25.404Z,8.54
2023-05-19T01:31:06.728Z,8.36
2023-05-19T01:32:48.074Z,8.55
2023-05-19T01:34:29.444Z,8.74
2023-05-19T01:36:10.761Z,8.86
2023-05-19T01:37:52.091Z,8.63
2023-05-19T01:39:33.441Z,8.57
2023-05-19T01:41:14.733Z,8.75
2023-05-19T01:42:57.574Z,8.67
2023-05-19T01:44:39.217Z,7.95
2023-05-19T01:46:20.591Z,7.80
2023-05-19T01:48:01.974Z,7.79
2023-05-19T01:49:43.372Z,7.99
2023-05-19T01:51:24.732Z,8.10
2023-05-19T01:53:06.113Z,8.18
2023-05-19T01:54:47.514Z,8.25
2023-05-19T01:56:28.817Z,8.21
2023-05-19T01:58:10.156Z,8.22
2023-05-19T01:59:51.499Z,8.27
2023-05-19T02:01:32.877Z,8.23
2023-05-19T02:03:14.237Z,8.36
2023-05-19T02:04:55.631Z,8.43
2023-05-19T02:06:36.962Z,8.63
2023-05-19T02:08:18.331Z,8.51
2023-05-19T02:09:59.686Z,8.57
2023-05-19T02:11:41.046Z,8.41
2023-05-19T02:13:22.373Z,8.71
2023-05-19T02:15:03.766Z,8.86
2023-05-19T02:16:45.107Z,9.12
2023-05-19T02:18:26.489Z,9.25
2023-05-19T02:20:07.871Z,8.81
2023-05-19T02:21:49.200Z,9.04
2023-05-19T02:23:30.565Z,9.12
2023-05-19T02:25:11.955Z,8.82
2023-05-19T02:26:53.280Z,8.04
2023-05-19T02:28:34.588Z,7.70
2023-05-19T02:30:15.963Z,7.39
2023-05-19T02:31:57.373Z,7.45
2023-05-19T02:33:38.758Z,7.44
2023-05-19T02:35:20.138Z,7.55
2023-05-19T02:37:01.511Z,7.73
2023-05-19T02:38:42.906Z,7.80
2023-05-19T02:40:24.302Z,8.23
2023-05-19T02:42:05.646Z,7.89
2023-05-19T02:43:46.992Z,7.31
2023-05-19T02:45:28.343Z,6.77
2023-05-19T02:47:09.789Z,6.72
2023-05-19T02:48:51.161Z,6.31
2023-05-19T02:50:32.681Z,6.14
2023-05-19T02:52:14.190Z,6.31
2023-05-19T02:53:55.555Z,6.08
2023-05-19T02:55:36.909Z,6.15
2023-05-19T02:57:18.213Z,6.40
2023-05-19T02:58:59.550Z,6.76
2023-05-19T03:00:40.923Z,6.98
2023-05-19T03:02:22.262Z,7.46
2023-05-19T03:04:03.710Z,7.66
2023-05-19T03:05:45.081Z,7.43
2023-05-19T03:07:26.397Z,7.40
2023-05-19T03:09:07.752Z,7.40
2023-05-19T03:10:49.102Z,7.13
2023-05-19T03:12:30.435Z,6.86
2023-05-19T03:14:11.821Z,6.91
2023-05-19T03:15:53.246Z,6.98
2023-05-19T03:17:34.782Z,7.18
2023-05-19T03:19:16.215Z,7.26
2023-05-19T03:20:57.575Z,7.49
2023-05-19T03:22:38.955Z,7.67
2023-05-19T03:24:20.313Z,8.02
2023-05-19T03:26:01.627Z,8.25
2023-05-19T03:27:42.961Z,8.01
2023-05-19T03:29:24.299Z,7.81
2023-05-19T03:31:05.621Z,7.87
2023-05-19T03:32:47.037Z,8.05
2023-05-19T03:34:28.413Z,8.20
2023-05-19T03:36:09.804Z,7.59
2023-05-19T03:37:51.112Z,7.22
2023-05-19T03:39:32.485Z,7.56
2023-05-19T03:41:13.802Z,7.20
2023-05-19T03:42:55.145Z,7.18
2023-05-19T03:44:36.509Z,7.30
2023-05-19T03:46:18.002Z,7.50
2023-05-19T03:47:59.563Z,7.71
2023-05-19T03:49:40.967Z,8.03
2023-05-19T03:51:22.426Z,7.77
2023-05-19T03:53:03.774Z,7.71
2023-05-19T03:54:45.123Z,7.62
2023-05-19T03:56:26.422Z,7.72
2023-05-19T03:58:07.751Z,7.86
2023-05-19T03:59:49.079Z,7.76
2023-05-19T04:01:30.422Z,7.87
2023-05-19T04:03:11.931Z,7.74
2023-05-19T04:04:53.424Z,7.56
2023-05-19T04:06:34.806Z,7.56
2023-05-19T04:08:16.157Z,7.54
2023-05-19T04:09:57.534Z,7.63
2023-05-19T04:11:38.895Z,7.53
2023-05-19T04:13:20.250Z,7.17
2023-05-19T04:15:01.758Z,7.19
2023-05-19T04:16:43.111Z,7.14
2023-05-19T04:18:25.121Z,6.19
2023-05-19T04:20:07.694Z,6.15
2023-05-19T04:21:49.019Z,6.32
2023-05-19T04:23:30.335Z,6.18
2023-05-19T04:25:11.654Z,6.40
2023-05-19T04:26:53.008Z,6.62
2023-05-19T04:28:34.333Z,6.68
2023-05-19T04:30:16.712Z,7.06
2023-05-19T04:31:59.738Z,7.18
2023-05-19T04:33:41.065Z,7.23
2023-05-19T04:35:22.381Z,7.53
2023-05-19T04:37:03.753Z,7.61
2023-05-19T04:38:45.086Z,7.82
2023-05-19T04:40:26.416Z,7.84
2023-05-19T04:42:07.762Z,7.86
2023-05-19T04:43:49.072Z,8.00
2023-05-19T04:45:30.394Z,8.05
2023-05-19T04:47:11.934Z,8.30
2023-05-19T04:48:53.325Z,8.15
2023-05-19T04:50:34.878Z,8.35
2023-05-19T04:52:16.346Z,8.37
2023-05-19T04:53:57.685Z,8.35
2023-05-19T04:55:39.048Z,8.34
2023-05-19T04:57:20.408Z,8.39
2023-05-19T04:59:01.729Z,8.27
2023-05-19T05:00:43.042Z,8.20
2023-05-19T05:02:24.469Z,8.26
2023-05-19T05:04:05.918Z,8.27
2023-05-19T05:05:47.353Z,8.03
2023-05-19T05:07:30.334Z,7.88
2023-05-19T05:09:13.489Z,7.81
2023-05-19T05:10:54.839Z,7.99
2023-05-19T05:12:36.165Z,8.08
2023-05-19T05:14:17.483Z,8.41
2023-05-19T05:15:58.827Z,8.57
2023-05-19T05:17:40.211Z,8.67
2023-05-19T05:19:21.590Z,8.93
2023-05-19T05:21:03.021Z,9.01
2023-05-19T05:22:44.355Z,8.53
2023-05-19T05:24:25.666Z,8.73
2023-05-19T05:26:07.018Z,8.90
2023-05-19T05:27:48.371Z,9.01
2023-05-19T05:29:29.714Z,9.11
2023-05-19T05:31:11.155Z,8.64
2023-05-19T05:32:52.632Z,8.22
2023-05-19T05:34:34.041Z,7.99
2023-05-19T05:36:15.378Z,7.98
2023-05-19T05:37:56.710Z,7.61
2023-05-19T05:39:38.068Z,7.39
2023-05-19T05:41:19.434Z,7.67
2023-05-19T05:43:00.768Z,7.56
2023-05-19T05:44:42.086Z,7.42
2023-05-19T05:46:23.515Z,7.09
2023-05-19T05:48:04.925Z,6.73
2023-05-19T05:49:46.339Z,6.47
2023-05-19T05:51:27.657Z,6.55
2023-05-19T05:53:09.000Z,6.47
2023-05-19T05:54:50.339Z,6.77
2023-05-19T05:56:31.717Z,7.34
2023-05-19T05:58:13.110Z,7.83
2023-05-19T05:59:54.441Z,7.87
2023-05-19T06:01:35.865Z,7.51
2023-05-19T06:03:17.377Z,7.72
2023-05-19T06:04:58.945Z,7.59
2023-05-19T06:06:40.329Z,7.84
2023-05-19T06:08:21.754Z,8.17
2023-05-19T06:10:03.066Z,8.57
2023-05-19T06:11:44.421Z,8.90
2023-05-19T06:13:25.855Z,9.18
2023-05-19T06:15:07.180Z,9.34
2023-05-19T06:16:48.533Z,9.56
2023-05-19T06:18:29.868Z,8.82
2023-05-19T06:20:11.175Z,8.26
2023-05-19T06:21:52.551Z,8.48
2023-05-19T06:23:33.909Z,8.47
2023-05-19T06:25:15.265Z,8.54
2023-05-19T06:26:56.638Z,8.87
2023-05-19T06:28:37.962Z,9.21
2023-05-19T06:30:19.293Z,9.62
2023-05-19T06:32:00.646Z,9.71
2023-05-19T06:33:42.031Z,9.56
2023-05-19T06:35:23.358Z,9.59
2023-05-19T06:37:04.683Z,9.47
2023-05-19T06:38:46.078Z,9.73
2023-05-19T06:40:27.410Z,9.73
2023-05-19T06:42:08.743Z,9.87
2023-05-19T06:43:50.182Z,10.04
2023-05-19T06:45:31.504Z,10.05
2023-05-19T06:47:13.006Z,10.23
2023-05-19T06:48:54.522Z,10.38
2023-05-19T06:50:35.932Z,10.53
2023-05-19T06:52:17.291Z,10.71
2023-05-19T06:53:58.635Z,10.81
2023-05-19T06:55:54.440Z,10.75
2023-05-19T06:57:39.127Z,10.85
2023-05-19T06:59:20.501Z,10.67
2023-05-19T07:01:01.896Z,10.78
2023-05-19T07:02:43.283Z,10.87
2023-05-19T07:04:24.702Z,10.96
2023-05-19T07:06:08.108Z,11.06
2023-05-19T07:07:49.853Z,10.97
2023-05-19T07:09:31.239Z,11.15
2023-05-19T07:11:12.650Z,11.05
2023-05-19T07:12:53.990Z,11.22
2023-05-19T07:14:35.296Z,11.22
2023-05-19T07:16:16.715Z,11.37
2023-05-19T07:17:58.221Z,11.45
2023-05-19T07:19:39.593Z,11.46
2023-05-19T07:21:20.973Z,11.54
2023-05-19T07:23:02.332Z,11.55
2023-05-19T07:24:43.673Z,11.65
2023-05-19T07:26:25.108Z,11.81
2023-05-19T07:28:06.435Z,11.71
2023-05-19T07:29:47.997Z,11.67
2023-05-19T07:31:29.411Z,11.72
2023-05-19T07:33:10.874Z,11.42
2023-05-19T07:34:52.326Z,11.70
2023-05-19T07:36:33.755Z,11.76
2023-05-19T07:38:15.224Z,12.06
2023-05-19T07:39:56.603Z,12.08
2023-05-19T07:41:38.005Z,11.67
2023-05-19T07:43:19.368Z,11.71
2023-05-19T07:45:00.728Z,11.66
2023-05-19T07:46:42.053Z,11.76
2023-05-19T07:48:23.372Z,11.66
2023-05-19T07:50:04.697Z,11.99
2023-05-19T07:51:46.038Z,12.29
2023-05-19T07:53:27.396Z,12.11
2023-05-19T07:55:08.744Z,12.14
2023-05-19T07:56:50.209Z,12.40
2023-05-19T07:58:31.557Z,12.62
2023-05-19T08:00:12.910Z,12.37
2023-05-19T08:01:54.331Z,11.96
2023-05-19T08:03:35.918Z,11.71
2023-05-19T08:05:17.493Z,11.99
2023-05-19T08:06:58.890Z,12.19
2023-05-19T08:08:40.230Z,12.40
2023-05-19T08:10:21.596Z,12.21
2023-05-19T08:12:02.996Z,12.18
2023-05-19T08:13:44.393Z,12.17
2023-05-19T08:15:25.899Z,11.98
2023-05-19T08:17:07.442Z,12.30
2023-05-19T08:18:48.850Z,12.24
2023-05-19T08:20:30.324Z,12.34
2023-05-19T08:22:11.749Z,12.49
2023-05-19T08:23:53.158Z,12.45
2023-05-19T08:25:34.564Z,12.62
2023-05-19T08:27:15.885Z,12.55
2023-05-19T08:28:57.226Z,12.53
2023-05-19T08:30:38.576Z,12.22
2023-05-19T08:32:19.929Z,12.10
2023-05-19T08:34:01.308Z,11.80
2023-05-19T08:35:42.676Z,12.11
2023-05-19T08:37:23.986Z,12.04
2023-05-19T08:39:05.297Z,12.24
2023-05-19T08:40:46.672Z,12.14
2023-05-19T08:42:28.002Z,11.99
2023-05-19T08:44:09.376Z,12.17
2023-05-19T08:45:50.868Z,12.15
2023-05-19T08:47:32.195Z,12.29
2023-05-19T08:49:13.541Z,12.47
2023-05-19T08:50:54.917Z,12.68
2023-05-19T08:52:36.239Z,12.65
2023-05-19T08:54:17.583Z,13.20
2023-05-19T08:55:58.927Z,13.74
2023-05-19T08:57:40.489Z,13.59
2023-05-19T08:59:21.837Z,13.77
2023-05-19T09:01:03.171Z,13.62
2023-05-19T09:02:55.084Z,13.33
2023-05-19T09:04:42.524Z,13.32
2023-05-19T09:06:23.881Z,13.18
2023-05-19T09:08:05.263Z,13.36
2023-05-19T09:09:46.604Z,12.83
2023-05-19T09:11:27.950Z,13.29
2023-05-19T09:13:09.337Z,13.13
2023-05-19T09:14:50.654Z,13.34
2023-05-19T09:16:32.027Z,13.46
2023-05-19T09:18:13.444Z,13.25
2023-05-19T09:19:54.854Z,13.42
2023-05-19T09:21:36.212Z,13.43
2023-05-19T09:23:17.523Z,13.18
2023-05-19T09:24:58.907Z,13.62
2023-05-19T09:26:40.336Z,13.30
2023-05-19T09:28:21.756Z,12.90
2023-05-19T09:30:03.228Z,13.06
2023-05-19T09:31:44.600Z,13.05
2023-05-19T09:33:25.989Z,13.48
2023-05-19T09:35:07.344Z,13.35
2023-05-19T09:36:48.709Z,13.59
2023-05-19T09:38:30.044Z,13.08
2023-05-19T09:40:13.025Z,13.41
2023-05-19T09:41:54.557Z,13.79
2023-05-19T09:43:35.997Z,13.85
2023-05-19T09:45:17.410Z,13.78
2023-05-19T09:46:58.851Z,14.15
2023-05-19T09:48:40.205Z,14.59
2023-05-19T09:50:21.536Z,14.42
2023-05-19T09:52:02.926Z,14.55
2023-05-19T09:53:44.247Z,14.78
2023-05-19T09:55:25.647Z,14.64
2023-05-19T09:57:08.822Z,14.59
2023-05-19T09:58:50.292Z,14.75
2023-05-19T10:00:31.761Z,15.12
2023-05-19T10:02:13.235Z,14.91
2023-05-19T10:03:54.568Z,15.02
2023-05-19T10:05:36.087Z,15.67
2023-05-19T10:07:17.634Z,15.62
2023-05-19T10:08:58.997Z,15.34
2023-05-19T10:10:40.364Z,15.42
2023-05-19T10:12:21.745Z,14.81
2023-05-19T10:14:03.114Z,15.18
2023-05-19T10:15:57.141Z,15.34
2023-05-19T10:17:40.514Z,15.73
2023-05-19T10:19:22.015Z,15.93
2023-05-19T10:21:03.461Z,15.55
2023-05-19T10:22:44.845Z,15.77
2023-05-19T10:24:26.266Z,15.70
2023-05-19T10:26:07.734Z,15.79
2023-05-19T10:27:49.104Z,15.86
2023-05-19T10:29:30.448Z,15.96
2023-05-19T10:31:11.751Z,16.42
2023-05-19T10:32:53.115Z,16.86
2023-05-19T10:34:34.504Z,16.52
2023-05-19T10:36:15.843Z,15.78
2023-05-19T10:37:57.199Z,15.84
2023-05-19T10:39:38.578Z,16.05
2023-05-19T10:41:19.931Z,16.25
2023-05-19T10:43:01.286Z,16.01
2023-05-19T10:44:42.945Z,15.92
2023-05-19T10:46:24.296Z,15.96
2023-05-19T10:48:05.738Z,15.83
2023-05-19T10:49:47.108Z,15.55
2023-05-19T10:51:28.431Z,15.30
2023-05-19T10:53:09.784Z,15.52
2023-05-19T10:54:51.158Z,15.50
2023-05-19T10:56:32.493Z,15.60
2023-05-19T10:58:13.850Z,15.36
2023-05-19T10:59:55.188Z,15.03
2023-05-19T11:01:36.617Z,15.15
2023-05-19T11:03:17.999Z,14.86
2023-05-19T11:04:59.331Z,14.82
2023-05-19T11:06:40.675Z,14.32
2023-05-19T11:08:22.044Z,14.08
2023-05-19T11:10:03.396Z,14.38
2023-05-19T11:11:44.741Z,14.51
2023-05-19T11:13:26.249Z,14.26
2023-05-19T11:15:07.604Z,14.58
2023-05-19T11:16:48.980Z,14.58
2023-05-19T11:18:30.399Z,14.90
2023-05-19T11:20:11.741Z,14.83
2023-05-19T11:21:53.089Z,15.08
2023-05-19T11:23:35.566Z,15.21
2023-05-19T11:25:17.106Z,15.07
2023-05-19T11:26:58.409Z,15.17
2023-05-19T11:28:39.770Z,15.10
2023-05-19T11:30:21.112Z,15.21
2023-05-19T11:32:02.514Z,15.26
2023-05-19T11:33:43.940Z,14.89
2023-05-19T11:35:25.272Z,14.80
2023-05-19T11:37:06.622Z,14.41
2023-05-19T11:38:47.984Z,14.43
2023-05-19T11:40:29.356Z,14.34
2023-05-19T11:42:10.762Z,14.48
2023-05-19T11:43:52.127Z,14.28
2023-05-19T11:45:33.590Z,14.21
2023-05-19T11:47:15.099Z,14.32
2023-05-19T11:48:56.464Z,14.21
2023-05-19T11:50:37.785Z,14.47
2023-05-19T11:52:19.173Z,14.11
2023-05-19T11:54:00.569Z,14.04
2023-05-19T11:55:41.893Z,13.63
2023-05-19T11:57:23.361Z,13.53
2023-05-19T11:59:04.706Z,13.36
2023-05-19T12:00:46.246Z,13.59
2023-05-19T12:02:27.999Z,13.12
2023-05-19T12:04:09.467Z,13.24
2023-05-19T12:05:50.914Z,13.37
2023-05-19T12:07:32.439Z,13.14
2023-05-19T12:09:13.821Z,13.13
2023-05-19T12:10:55.296Z,13.25
2023-05-19T12:12:36.652Z,13.55
2023-05-19T12:14:18.006Z,13.74
2023-05-19T12:15:59.405Z,13.47
2023-05-19T12:17:40.805Z,13.50
2023-05-19T12:19:22.262Z,13.84
2023-05-19T12:21:03.622Z,14.11
2023-05-19T12:22:44.980Z,14.28
2023-05-19T12:24:26.367Z,14.15
2023-05-19T12:26:07.710Z,14.21
2023-05-19T12:27:49.055Z,13.88
2023-05-19T12:29:30.403Z,14.00
2023-05-19T12:31:11.764Z,13.87
2023-05-19T12:32:53.179Z,13.82
2023-05-19T12:34:34.597Z,13.89
2023-05-19T12:36:15.917Z,13.98
2023-05-19T12:37:57.273Z,14.02
2023-05-19T12:39:38.614Z,14.07
2023-05-19T12:41:19.929Z,14.14
2023-05-19T12:43:01.328Z,14.28
2023-05-19T12:44:42.676Z,14.21
2023-05-19T12:46:24.074Z,14.16
2023-05-19T12:48:05.664Z,14.06
2023-05-19T12:49:47.086Z,14.33
2023-05-19T12:51:28.720Z,14.07
2023-05-19T12:53:10.121Z,14.31
2023-05-19T12:54:51.477Z,14.42
2023-05-19T12:56:32.807Z,14.54
2023-05-19T12:58:14.199Z,14.41
2023-05-19T12:59:55.556Z,14.61
2023-05-19T13:01:36.993Z,14.76
2023-05-19T13:03:18.447Z,14.49
2023-05-19T13:04:59.890Z,14.29
2023-05-19T13:06:41.204Z,14.19
2023-05-19T13:08:22.580Z,14.21
2023-05-19T13:10:03.888Z,14.35
2023-05-19T13:11:45.209Z,13.86
2023-05-19T13:13:26.569Z,14.02
2023-05-19T13:15:07.885Z,14.02
2023-05-19T13:16:49.319Z,14.09
2023-05-19T13:18:30.713Z,13.97
2023-05-19T13:20:12.039Z,13.82
2023-05-19T13:21:53.414Z,13.93
2023-05-19T13:23:34.767Z,14.00
2023-05-19T13:25:16.102Z,13.92
2023-05-19T13:26:57.473Z,14.00
2023-05-19T13:28:38.819Z,14.00
2023-05-19T13:30:20.159Z,13.94
2023-05-19T13:32:01.685Z,13.74
2023-05-19T13:33:43.105Z,13.54
2023-05-19T13:35:24.676Z,13.74
2023-05-19T13:37:07.675Z,13.36
2023-05-19T13:38:49.187Z,13.58
2023-05-19T13:40:30.580Z,13.02
2023-05-19T13:42:11.985Z,12.73
2023-05-19T13:43:53.343Z,12.92
2023-05-19T13:45:34.682Z,12.66
2023-05-19T13:47:16.013Z,12.26
2023-05-19T13:48:57.406Z,12.38
2023-05-19T13:50:38.769Z,12.13
2023-05-19T13:52:20.115Z,12.20
2023-05-19T13:54:01.496Z,12.04
2023-05-19T13:55:42.845Z,12.04
2023-05-19T13:57:24.211Z,12.13
2023-05-19T13:59:05.560Z,12.51
2023-05-19T14:00:46.887Z,12.31
2023-05-19T14:02:28.367Z,12.35
2023-05-19T14:04:10.027Z,12.79
2023-05-19T14:05:51.468Z,13.03
2023-05-19T14:07:32.797Z,12.81
2023-05-19T14:09:14.157Z,12.94
2023-05-19T14:10:55.477Z,13.01
2023-05-19T14:12:43.718Z,13.12
2023-05-19T14:14:38.176Z,13.08
2023-05-19T14:16:19.605Z,13.16
2023-05-19T14:18:00.997Z,13.07
2023-05-19T14:19:42.383Z,13.04
2023-05-19T14:21:23.738Z,13.34
2023-05-19T14:23:05.093Z,13.32
2023-05-19T14:24:46.466Z,13.13
2023-05-19T14:26:29.324Z,12.99
2023-05-19T14:28:10.935Z,12.88
2023-05-19T14:29:52.336Z,13.23
2023-05-19T14:31:34.099Z,13.40
2023-05-19T14:33:15.522Z,13.34
2023-05-19T14:34:56.951Z,13.50
2023-05-19T14:36:38.267Z,13.32
2023-05-19T14:38:19.598Z,13.34
2023-05-19T14:40:00.958Z,13.42
2023-05-19T14:41:42.273Z,13.32
2023-05-19T14:43:23.611Z,13.13
2023-05-19T14:45:04.990Z,13.00
2023-05-19T14:46:46.425Z,12.81
2023-05-19T14:48:27.760Z,12.95
2023-05-19T14:50:09.168Z,13.01
2023-05-19T14:51:50.526Z,13.15
2023-05-19T14:53:31.896Z,13.23
2023-05-19T14:55:13.262Z,12.85
2023-05-19T14:56:54.614Z,12.94
2023-05-19T14:58:35.948Z,13.24
2023-05-19T15:00:17.273Z,13.17
2023-05-19T15:01:58.669Z,13.11
2023-05-19T15:03:40.019Z,13.20
2023-05-19T15:05:21.385Z,12.69
2023-05-19T15:07:09.868Z,12.33
2023-05-19T15:08:52.250Z,12.23
2023-05-19T15:10:33.922Z,12.25
2023-05-19T15:12:15.427Z,11.95
2023-05-19T15:13:56.767Z,12.42
2023-05-19T15:15:38.179Z,12.36
2023-05-19T15:17:19.635Z,12.31
2023-05-19T15:19:01.086Z,12.54
2023-05-19T15:20:42.452Z,12.18
2023-05-19T15:22:23.782Z,12.37
2023-05-19T15:24:05.137Z,12.32
2023-05-19T15:25:46.478Z,12.49
2023-05-19T15:27:27.838Z,12.32
2023-05-19T15:29:09.154Z,12.55
2023-05-19T15:30:50.531Z,12.21
2023-05-19T15:32:31.949Z,12.40
2023-05-19T15:34:13.321Z,12.58
2023-05-19T15:35:54.700Z,12.76
2023-05-19T15:37:36.042Z,12.78
2023-05-19T15:39:17.448Z,12.87
2023-05-19T15:40:58.848Z,12.99
2023-05-19T15:42:40.177Z,13.11
2023-05-19T15:44:21.574Z,13.01
2023-05-19T15:46:02.973Z,13.10
2023-05-19T15:47:45.514Z,13.16
2023-05-19T15:49:27.095Z,12.90
2023-05-19T15:51:08.445Z,13.14
2023-05-19T15:52:49.773Z,12.73
2023-05-19T15:54:31.127Z,12.66
2023-05-19T15:56:12.477Z,12.74
2023-05-19T15:57:53.776Z,12.83
2023-05-19T15:59:35.116Z,12.63
2023-05-19T16:01:16.506Z,12.86
2023-05-19T16:02:57.882Z,12.75
2023-05-19T16:04:39.324Z,12.81
2023-05-19T16:06:20.654Z,12.65
2023-05-19T16:08:02.006Z,12.70
2023-05-19T16:09:43.329Z,12.59
2023-05-19T16:11:24.703Z,12.76
2023-05-19T16:13:06.025Z,12.51
2023-05-19T16:14:47.359Z,12.72
2023-05-19T16:16:28.844Z,12.76
2023-05-19T16:18:10.320Z,12.71
2023-05-19T16:19:51.763Z,12.67
2023-05-19T16:21:33.171Z,12.84
2023-05-19T16:23:14.798Z,12.89
2023-05-19T16:24:56.420Z,13.08
2023-05-19T16:26:37.826Z,13.07
2023-05-19T16:28:19.198Z,13.01
2023-05-19T16:30:00.658Z,12.95
2023-05-19T16:31:42.074Z,13.03
2023-05-19T16:33:23.727Z,12.79
2023-05-19T16:35:05.290Z,12.78
2023-05-19T16:36:46.742Z,12.85
2023-05-19T16:38:28.094Z,12.81
2023-05-19T16:40:09.424Z,12.68
2023-05-19T16:41:50.765Z,12.72
2023-05-19T16:43:32.108Z,12.84
2023-05-19T16:45:13.446Z,12.89
2023-05-19T16:46:54.799Z,12.78
2023-05-19T16:48:36.297Z,12.56
2023-05-19T16:50:17.829Z,12.66
2023-05-19T16:51:59.250Z,12.50
2023-05-19T16:53:40.603Z,12.74
2023-05-19T16:55:22.115Z,12.74
2023-05-19T16:57:03.724Z,13.02
2023-05-19T16:58:45.279Z,12.92
2023-05-19T17:00:26.885Z,12.80
2023-05-19T17:02:08.288Z,12.81
2023-05-19T17:03:49.731Z,12.95
2023-05-19T17:05:31.881Z,12.82
2023-05-19T17:07:13.480Z,12.82
2023-05-19T17:08:54.818Z,12.76
2023-05-19T17:10:36.342Z,12.63
2023-05-19T17:12:18.056Z,12.72
2023-05-19T17:13:59.616Z,12.81
2023-05-19T17:15:43.032Z,13.07
2023-05-19T17:17:25.052Z,12.86
2023-05-19T17:19:06.804Z,12.90
2023-05-19T17:20:48.385Z,13.00
2023-05-19T17:22:30.479Z,12.89
2023-05-19T17:24:11.869Z,12.94
2023-05-19T17:25:53.344Z,13.10
2023-05-19T17:27:34.698Z,13.20
2023-05-19T17:29:16.064Z,13.01
2023-05-19T17:30:58.089Z,13.02
2023-05-19T17:32:40.017Z,12.80
2023-05-19T17:34:21.603Z,12.79
2023-05-19T17:36:02.957Z,12.66
2023-05-19T17:37:44.532Z,12.81
2023-05-19T17:39:26.278Z,12.74
2023-05-19T17:41:07.709Z,12.56
2023-05-19T17:42:49.173Z,12.52
2023-05-19T17:44:32.507Z,12.74
2023-05-19T17:46:14.171Z,12.64
2023-05-19T17:47:55.667Z,12.59
2023-05-19T17:49:37.022Z,12.39
2023-05-19T17:51:18.488Z,12.24
2023-05-19T17:53:00.632Z,12.16
2023-05-19T17:54:42.135Z,12.10
2023-05-19T17:56:23.698Z,12.12
2023-05-19T17:58:05.324Z,11.94
2023-05-19T17:59:46.667Z,12.11
2023-05-19T18:01:28.243Z,12.35
2023-05-19T18:03:09.881Z,12.26
2023-05-19T18:04:51.236Z,12.30
2023-05-19T18:06:32.851Z,12.25
2023-05-19T18:08:14.363Z,12.14
2023-05-19T18:09:55.689Z,12.17
2023-05-19T18:11:37.040Z,12.05
2023-05-19T18:13:18.685Z,12.17
2023-05-19T18:15:00.213Z,11.88
2023-05-19T18:16:41.828Z,11.78
2023-05-19T18:18:23.380Z,11.82
2023-05-19T18:20:04.738Z,11.55
2023-05-19T18:21:46.094Z,11.62
2023-05-19T18:23:28.025Z,11.89
2023-05-19T18:25:09.586Z,11.71
2023-05-19T18:26:50.939Z,11.78
2023-05-19T18:28:32.282Z,12.14
2023-05-19T18:30:13.636Z,11.89
2023-05-19T18:31:55.268Z,11.70
2023-05-19T18:33:36.825Z,11.63
2023-05-19T18:35:18.154Z,11.72
2023-05-19T18:36:59.488Z,11.78
2023-05-19T18:38:41.160Z,11.84
2023-05-19T18:40:22.759Z,11.69
2023-05-19T18:42:04.098Z,11.52
2023-05-19T18:43:45.446Z,11.66
2023-05-19T18:45:26.825Z,11.74
2023-05-19T18:47:08.201Z,11.50
2023-05-19T18:48:49.569Z,11.62
2023-05-19T18:50:30.992Z,11.46
2023-05-19T18:52:12.370Z,11.33
2023-05-19T18:53:53.692Z,11.40
2023-05-19T18:55:37.095Z,11.41
2023-05-19T18:57:19.656Z,11.49
2023-05-19T18:59:01.063Z,11.59
2023-05-19T19:00:42.665Z,11.67
2023-05-19T19:02:24.438Z,11.68
2023-05-19T19:04:05.842Z,11.85
2023-05-19T19:05:47.424Z,11.79
2023-05-19T19:07:29.017Z,11.68
2023-05-19T19:09:10.607Z,11.65
2023-05-19T19:10:52.163Z,11.52
2023-05-19T19:12:33.564Z,11.33
2023-05-19T19:14:14.903Z,11.27
2023-05-19T19:15:56.241Z,11.14
2023-05-19T19:17:37.618Z,11.20
2023-05-19T19:19:19.121Z,11.14
2023-05-19T19:21:00.531Z,11.35
2023-05-19T19:22:42.570Z,11.17
2023-05-19T19:24:26.782Z,10.97
2023-05-19T19:26:08.129Z,10.94
2023-05-19T19:27:49.498Z,11.01
2023-05-19T19:29:30.826Z,11.23
2023-05-19T19:31:12.187Z,11.48
2023-05-19T19:32:53.677Z,11.47
2023-05-19T19:34:35.125Z,11.46
2023-05-19T19:36:16.460Z,11.21
2023-05-19T19:37:57.809Z,11.21
2023-05-19T19:39:39.129Z,11.16
2023-05-19T19:41:20.455Z,11.38
2023-05-19T19:43:01.806Z,11.38
2023-05-19T19:44:43.796Z,11.23
2023-05-19T19:46:25.705Z,11.16
2023-05-19T19:48:07.339Z,11.10
2023-05-19T19:49:48.778Z,11.13
2023-05-19T19:51:30.097Z,11.01
2023-05-19T19:53:11.479Z,11.09
2023-05-19T19:54:53.423Z,11.09
2023-05-19T19:56:34.944Z,10.95
2023-05-19T19:58:16.295Z,10.85
2023-05-19T19:59:57.633Z,10.82
2023-05-19T20:01:39.021Z,10.62
2023-05-19T20:03:21.481Z,10.90
2023-05-19T20:05:03.087Z,11.04
2023-05-19T20:06:44.410Z,10.62
2023-05-19T20:08:25.982Z,10.85
2023-05-19T20:10:07.490Z,10.76
2023-05-19T20:11:49.048Z,10.46
2023-05-19T20:13:32.082Z,10.61
2023-05-19T20:15:14.040Z,10.59
2023-05-19T20:16:55.383Z,10.68
2023-05-19T20:18:37.486Z,10.67
2023-05-19T20:20:18.985Z,10.52
2023-05-19T20:22:00.379Z,10.74
2023-05-19T20:23:41.974Z,10.69
2023-05-19T20:25:23.527Z,10.58
2023-05-19T20:27:04.877Z,10.42
2023-05-19T20:28:46.256Z,10.59
2023-05-19T20:30:27.886Z,10.54
2023-05-19T20:32:09.667Z,10.56
2023-05-19T20:33:51.280Z,10.57
2023-05-19T20:35:32.785Z,10.61
2023-05-19T20:37:14.450Z,10.75
2023-05-19T20:38:56.069Z,10.80
2023-05-19T20:40:37.603Z,10.67
2023-05-19T20:42:19.140Z,10.78
2023-05-19T20:44:00.516Z,10.79
2023-05-19T20:45:41.879Z,10.84
2023-05-19T20:47:23.220Z,10.67
2023-05-19T20:49:04.567Z,10.80
2023-05-19T20:50:45.915Z,10.72
2023-05-19T20:52:27.274Z,10.86
2023-05-19T20:54:08.643Z,11.00
2023-05-19T20:55:50.065Z,10.97
2023-05-19T20:57:32.120Z,10.95
2023-05-19T20:59:13.711Z,11.09
2023-05-19T21:00:55.345Z,10.97
2023-05-19T21:02:36.934Z,11.02
2023-05-19T21:04:18.480Z,11.06
2023-05-19T21:06:00.103Z,10.96
2023-05-19T21:07:41.476Z,10.98
2023-05-19T21:09:22.867Z,11.12
2023-05-19T21:11:04.249Z,10.97
2023-05-19T21:12:45.579Z,10.88
2023-05-19T21:14:26.906Z,11.07
2023-05-19T21:16:08.282Z,11.05
2023-05-19T21:17:49.697Z,11.04
2023-05-19T21:19:31.108Z,11.06
2023-05-19T21:21:12.494Z,11.09
2023-05-19T21:22:53.829Z,10.82
2023-05-19T21:24:35.186Z,10.72
2023-05-19T21:26:17.012Z,10.71
2023-05-19T21:27:58.650Z,10.79
2023-05-19T21:29:40.172Z,10.93
2023-05-19T21:31:21.742Z,10.88
2023-05-19T21:33:03.304Z,10.86
2023-05-19T21:34:44.875Z,10.84
2023-05-19T21:36:26.479Z,10.90
2023-05-19T21:38:22.218Z,10.90
2023-05-19T21:40:05.112Z,10.81
2023-05-19T21:41:46.562Z,10.90
2023-05-19T21:43:28.201Z,10.77
2023-05-19T21:45:09.774Z,10.85
2023-05-19T21:46:51.202Z,10.75
2023-05-19T21:48:32.674Z,10.65
2023-05-19T21:50:14.012Z,10.48
2023-05-19T21:51:55.375Z,10.67
2023-05-19T21:53:36.741Z,10.98
2023-05-19T21:55:18.078Z,10.92
2023-05-19T21:56:59.401Z,10.78
2023-05-19T21:58:40.720Z,10.87
2023-05-19T22:00:22.051Z,10.74
2023-05-19T22:02:03.445Z,10.60